sensor_id;sensor_type;location;lat;lon;timestamp;temperature;humidity
11079;DHT22;5592;49.234;7.268;2023-08-31T00:01:39;10.20;99.90
11079;DHT22;5592;49.234;7.268;2023-08-31T00:04:05;10.10;99.90
11079;DHT22;5592;49.234;7.268;2023-08-31T00:06:33;10.10;99.90
11079;DHT22;5592;49.234;7.268;2023-08-31T00:08:59;10.10;99.90
11079;DHT22;5592;49.234;7.268;2023-08-31T00:11:24;10.10;99.90
11079;DHT22;5592;49.234;7.268;2023-08-31T00:13:51;10.00;99.90
11079;DHT22;5592;49.234;7.268;2023-08-31T00:16:17;9.90;99.90
11079;DHT22;5592;49.234;7.268;2023-08-31T00:18:43;10.00;99.90
11079;DHT22;5592;49.234;7.268;2023-08-31T00:21:10;10.00;99.90
11079;DHT22;5592;49.234;7.268;2023-08-31T00:23:36;10.00;99.90
11079;DHT22;5592;49.234;7.268;2023-08-31T00:26:02;10.20;99.90
11079;DHT22;5592;49.234;7.268;2023-08-31T00:28:28;10.20;99.90
11079;DHT22;5592;49.234;7.268;2023-08-31T00:30:54;10.20;99.90
11079;DHT22;5592;49.234;7.268;2023-08-31T00:33:19;10.20;99.90
11079;DHT22;5592;49.234;7.268;2023-08-31T00:35:45;10.30;99.90
11079;DHT22;5592;49.234;7.268;2023-08-31T00:38:14;10.30;99.90
11079;DHT22;5592;49.234;7.268;2023-08-31T00:40:44;10.50;99.90
11079;DHT22;5592;49.234;7.268;2023-08-31T00:43:10;10.60;99.90
11079;DHT22;5592;49.234;7.268;2023-08-31T00:45:37;10.50;99.90
11079;DHT22;5592;49.234;7.268;2023-08-31T00:48:04;10.50;99.90
11079;DHT22;5592;49.234;7.268;2023-08-31T00:50:30;10.40;99.90
11079;DHT22;5592;49.234;7.268;2023-08-31T00:52:56;10.30;99.90
11079;DHT22;5592;49.234;7.268;2023-08-31T00:55:22;10.20;99.90
11079;DHT22;5592;49.234;7.268;2023-08-31T00:57:48;10.20;99.90
11079;DHT22;5592;49.234;7.268;2023-08-31T01:00:14;10.10;99.90
11079;DHT22;5592;49.234;7.268;2023-08-31T01:02:51;10.10;99.90
11079;DHT22;5592;49.234;7.268;2023-08-31T01:08:18;10.00;99.90
11079;DHT22;5592;49.234;7.268;2023-08-31T01:11:12;10.00;99.90
11079;DHT22;5592;49.234;7.268;2023-08-31T01:13:46;10.20;99.90
11079;DHT22;5592;49.234;7.268;2023-08-31T01:16:15;10.20;99.90
11079;DHT22;5592;49.234;7.268;2023-08-31T01:18:42;10.20;99.90
11079;DHT22;5592;49.234;7.268;2023-08-31T01:23:55;10.20;99.90
11079;DHT22;5592;49.234;7.268;2023-08-31T01:26:22;10.30;99.90
11079;DHT22;5592;49.234;7.268;2023-08-31T01:28:49;10.30;99.90
11079;DHT22;5592;49.234;7.268;2023-08-31T01:31:15;10.30;99.90
11079;DHT22;5592;49.234;7.268;2023-08-31T01:33:44;10.40;99.90
11079;DHT22;5592;49.234;7.268;2023-08-31T01:38:42;10.40;99.90
11079;DHT22;5592;49.234;7.268;2023-08-31T01:41:13;10.50;99.90
11079;DHT22;5592;49.234;7.268;2023-08-31T01:43:41;10.50;99.90
11079;DHT22;5592;49.234;7.268;2023-08-31T01:46:08;10.60;99.90
11079;DHT22;5592;49.234;7.268;2023-08-31T01:48:40;10.60;99.90
11079;DHT22;5592;49.234;7.268;2023-08-31T01:51:07;10.70;99.90
11079;DHT22;5592;49.234;7.268;2023-08-31T01:53:33;10.70;99.90
11079;DHT22;5592;49.234;7.268;2023-08-31T01:55:58;10.80;99.90
11079;DHT22;5592;49.234;7.268;2023-08-31T01:58:24;10.90;99.90
11079;DHT22;5592;49.234;7.268;2023-08-31T02:00:49;11.00;99.90
11079;DHT22;5592;49.234;7.268;2023-08-31T02:03:15;11.00;99.90
11079;DHT22;5592;49.234;7.268;2023-08-31T02:05:41;11.00;99.90
11079;DHT22;5592;49.234;7.268;2023-08-31T02:08:06;11.00;99.90
11079;DHT22;5592;49.234;7.268;2023-08-31T02:10:32;11.00;99.90
11079;DHT22;5592;49.234;7.268;2023-08-31T02:12:57;11.00;99.90
11079;DHT22;5592;49.234;7.268;2023-08-31T02:15:23;11.10;99.90
11079;DHT22;5592;49.234;7.268;2023-08-31T02:17:49;11.10;99.90
11079;DHT22;5592;49.234;7.268;2023-08-31T02:20:14;11.10;99.90
11079;DHT22;5592;49.234;7.268;2023-08-31T02:22:40;11.10;99.90
11079;DHT22;5592;49.234;7.268;2023-08-31T02:25:05;11.20;99.90
11079;DHT22;5592;49.234;7.268;2023-08-31T02:27:31;11.20;99.90
11079;DHT22;5592;49.234;7.268;2023-08-31T02:29:57;11.20;99.90
11079;DHT22;5592;49.234;7.268;2023-08-31T02:32:22;11.20;99.90
11079;DHT22;5592;49.234;7.268;2023-08-31T02:34:49;11.20;99.90
11079;DHT22;5592;49.234;7.268;2023-08-31T02:37:14;11.20;99.90
11079;DHT22;5592;49.234;7.268;2023-08-31T02:39:40;11.30;99.90
11079;DHT22;5592;49.234;7.268;2023-08-31T02:42:06;11.30;99.90
11079;DHT22;5592;49.234;7.268;2023-08-31T02:44:33;11.30;99.90
11079;DHT22;5592;49.234;7.268;2023-08-31T02:46:58;11.20;99.90
11079;DHT22;5592;49.234;7.268;2023-08-31T02:49:24;11.10;99.90
11079;DHT22;5592;49.234;7.268;2023-08-31T02:51:49;11.00;99.90
11079;DHT22;5592;49.234;7.268;2023-08-31T02:54:15;10.90;99.90
11079;DHT22;5592;49.234;7.268;2023-08-31T02:56:41;10.90;99.90
11079;DHT22;5592;49.234;7.268;2023-08-31T02:59:06;10.90;99.90
11079;DHT22;5592;49.234;7.268;2023-08-31T03:01:32;11.00;99.90
11079;DHT22;5592;49.234;7.268;2023-08-31T03:03:57;11.00;99.90
11079;DHT22;5592;49.234;7.268;2023-08-31T03:06:23;11.00;99.90
11079;DHT22;5592;49.234;7.268;2023-08-31T03:08:51;11.00;99.90
11079;DHT22;5592;49.234;7.268;2023-08-31T03:11:17;11.00;99.90
11079;DHT22;5592;49.234;7.268;2023-08-31T03:13:42;11.00;99.90
11079;DHT22;5592;49.234;7.268;2023-08-31T03:16:08;11.00;99.90
11079;DHT22;5592;49.234;7.268;2023-08-31T03:18:34;11.10;99.90
11079;DHT22;5592;49.234;7.268;2023-08-31T03:20:59;11.00;99.90
11079;DHT22;5592;49.234;7.268;2023-08-31T03:23:26;11.10;99.90
11079;DHT22;5592;49.234;7.268;2023-08-31T03:25:52;11.10;99.90
11079;DHT22;5592;49.234;7.268;2023-08-31T03:28:17;11.10;99.90
11079;DHT22;5592;49.234;7.268;2023-08-31T03:30:43;11.10;99.90
11079;DHT22;5592;49.234;7.268;2023-08-31T03:33:10;11.00;99.90
11079;DHT22;5592;49.234;7.268;2023-08-31T03:35:36;11.00;99.90
11079;DHT22;5592;49.234;7.268;2023-08-31T03:38:02;11.00;99.90
11079;DHT22;5592;49.234;7.268;2023-08-31T03:40:27;10.90;99.90
11079;DHT22;5592;49.234;7.268;2023-08-31T03:42:53;10.80;99.90
11079;DHT22;5592;49.234;7.268;2023-08-31T03:45:19;10.80;99.90
11079;DHT22;5592;49.234;7.268;2023-08-31T03:47:45;10.70;99.90
11079;DHT22;5592;49.234;7.268;2023-08-31T03:50:11;10.70;99.90
11079;DHT22;5592;49.234;7.268;2023-08-31T03:52:36;10.60;99.90
11079;DHT22;5592;49.234;7.268;2023-08-31T03:55:02;10.60;99.90
11079;DHT22;5592;49.234;7.268;2023-08-31T03:57:28;10.50;99.90
11079;DHT22;5592;49.234;7.268;2023-08-31T03:59:53;10.50;99.90
11079;DHT22;5592;49.234;7.268;2023-08-31T04:02:19;10.50;99.90
11079;DHT22;5592;49.234;7.268;2023-08-31T04:04:44;10.50;99.90
11079;DHT22;5592;49.234;7.268;2023-08-31T04:07:10;10.50;99.90
11079;DHT22;5592;49.234;7.268;2023-08-31T04:09:35;10.50;99.90
11079;DHT22;5592;49.234;7.268;2023-08-31T04:12:01;10.50;99.90
11079;DHT22;5592;49.234;7.268;2023-08-31T04:14:27;10.40;99.90
11079;DHT22;5592;49.234;7.268;2023-08-31T04:16:54;10.30;99.90
11079;DHT22;5592;49.234;7.268;2023-08-31T04:19:19;10.20;99.90
11079;DHT22;5592;49.234;7.268;2023-08-31T04:21:45;10.10;99.90
11079;DHT22;5592;49.234;7.268;2023-08-31T04:24:10;10.00;99.90
11079;DHT22;5592;49.234;7.268;2023-08-31T04:26:36;9.80;99.90
11079;DHT22;5592;49.234;7.268;2023-08-31T04:29:03;9.70;99.90
11079;DHT22;5592;49.234;7.268;2023-08-31T04:31:31;9.60;99.90
11079;DHT22;5592;49.234;7.268;2023-08-31T04:33:56;9.50;99.90
11079;DHT22;5592;49.234;7.268;2023-08-31T04:36:22;9.50;99.90
11079;DHT22;5592;49.234;7.268;2023-08-31T04:38:48;9.50;99.90
11079;DHT22;5592;49.234;7.268;2023-08-31T04:41:14;9.50;99.90
11079;DHT22;5592;49.234;7.268;2023-08-31T04:43:40;9.40;99.90
11079;DHT22;5592;49.234;7.268;2023-08-31T04:46:06;9.30;99.90
11079;DHT22;5592;49.234;7.268;2023-08-31T04:48:32;9.30;99.90
11079;DHT22;5592;49.234;7.268;2023-08-31T04:50:58;9.30;99.90
11079;DHT22;5592;49.234;7.268;2023-08-31T04:53:23;9.30;99.90
11079;DHT22;5592;49.234;7.268;2023-08-31T04:55:49;9.30;99.90
11079;DHT22;5592;49.234;7.268;2023-08-31T04:58:15;9.30;99.90
11079;DHT22;5592;49.234;7.268;2023-08-31T05:00:40;9.30;99.90
11079;DHT22;5592;49.234;7.268;2023-08-31T05:03:06;9.30;99.90
11079;DHT22;5592;49.234;7.268;2023-08-31T05:05:31;9.30;99.90
11079;DHT22;5592;49.234;7.268;2023-08-31T05:07:57;9.30;99.90
11079;DHT22;5592;49.234;7.268;2023-08-31T05:10:24;9.40;99.90
11079;DHT22;5592;49.234;7.268;2023-08-31T05:12:49;9.40;99.90
11079;DHT22;5592;49.234;7.268;2023-08-31T05:15:15;9.50;99.90
11079;DHT22;5592;49.234;7.268;2023-08-31T05:17:41;9.70;99.90
11079;DHT22;5592;49.234;7.268;2023-08-31T05:20:07;9.80;99.90
11079;DHT22;5592;49.234;7.268;2023-08-31T05:22:35;9.90;99.90
11079;DHT22;5592;49.234;7.268;2023-08-31T05:25:01;9.90;99.90
11079;DHT22;5592;49.234;7.268;2023-08-31T05:27:27;10.00;99.90
11079;DHT22;5592;49.234;7.268;2023-08-31T05:29:52;10.10;99.90
11079;DHT22;5592;49.234;7.268;2023-08-31T05:32:18;10.20;99.90
11079;DHT22;5592;49.234;7.268;2023-08-31T05:34:43;10.30;99.90
11079;DHT22;5592;49.234;7.268;2023-08-31T05:37:09;10.40;99.90
11079;DHT22;5592;49.234;7.268;2023-08-31T05:39:35;10.60;99.90
11079;DHT22;5592;49.234;7.268;2023-08-31T05:42:00;10.70;99.90
11079;DHT22;5592;49.234;7.268;2023-08-31T05:44:26;10.70;99.90
11079;DHT22;5592;49.234;7.268;2023-08-31T05:46:52;10.90;99.90
11079;DHT22;5592;49.234;7.268;2023-08-31T05:49:17;11.00;99.90
11079;DHT22;5592;49.234;7.268;2023-08-31T05:51:43;11.10;99.90
11079;DHT22;5592;49.234;7.268;2023-08-31T05:54:08;11.20;99.90
11079;DHT22;5592;49.234;7.268;2023-08-31T05:56:38;11.40;99.90
11079;DHT22;5592;49.234;7.268;2023-08-31T05:59:05;11.50;99.90
11079;DHT22;5592;49.234;7.268;2023-08-31T06:01:31;11.60;99.90
11079;DHT22;5592;49.234;7.268;2023-08-31T06:03:56;11.80;99.90
11079;DHT22;5592;49.234;7.268;2023-08-31T06:06:22;11.90;99.90
11079;DHT22;5592;49.234;7.268;2023-08-31T06:08:48;12.10;99.90
11079;DHT22;5592;49.234;7.268;2023-08-31T06:11:14;12.20;99.90
11079;DHT22;5592;49.234;7.268;2023-08-31T06:13:40;12.30;99.90
11079;DHT22;5592;49.234;7.268;2023-08-31T06:16:05;12.30;99.90
11079;DHT22;5592;49.234;7.268;2023-08-31T06:18:31;12.50;99.90
11079;DHT22;5592;49.234;7.268;2023-08-31T06:20:57;13.20;99.90
11079;DHT22;5592;49.234;7.268;2023-08-31T06:23:22;14.40;99.90
11079;DHT22;5592;49.234;7.268;2023-08-31T06:25:48;15.60;99.90
11079;DHT22;5592;49.234;7.268;2023-08-31T06:28:13;16.40;99.90
11079;DHT22;5592;49.234;7.268;2023-08-31T06:30:40;17.30;99.90
11079;DHT22;5592;49.234;7.268;2023-08-31T06:33:10;18.20;99.90
11079;DHT22;5592;49.234;7.268;2023-08-31T06:35:35;20.20;99.90
11079;DHT22;5592;49.234;7.268;2023-08-31T06:38:01;22.10;99.90
11079;DHT22;5592;49.234;7.268;2023-08-31T06:40:26;23.10;99.90
11079;DHT22;5592;49.234;7.268;2023-08-31T06:42:52;23.10;99.90
11079;DHT22;5592;49.234;7.268;2023-08-31T06:45:17;23.70;99.90
11079;DHT22;5592;49.234;7.268;2023-08-31T06:47:43;24.70;99.90
11079;DHT22;5592;49.234;7.268;2023-08-31T06:50:09;25.40;99.90
11079;DHT22;5592;49.234;7.268;2023-08-31T06:52:34;26.10;99.90
11079;DHT22;5592;49.234;7.268;2023-08-31T06:55:00;26.40;99.90
11079;DHT22;5592;49.234;7.268;2023-08-31T06:57:26;27.10;99.90
11079;DHT22;5592;49.234;7.268;2023-08-31T06:59:53;27.60;99.90
11079;DHT22;5592;49.234;7.268;2023-08-31T07:02:18;28.40;99.90
11079;DHT22;5592;49.234;7.268;2023-08-31T07:04:45;28.80;99.90
11079;DHT22;5592;49.234;7.268;2023-08-31T07:07:11;29.10;99.90
11079;DHT22;5592;49.234;7.268;2023-08-31T07:09:38;29.10;99.90
11079;DHT22;5592;49.234;7.268;2023-08-31T07:12:04;29.50;99.90
11079;DHT22;5592;49.234;7.268;2023-08-31T07:14:30;29.90;99.90
11079;DHT22;5592;49.234;7.268;2023-08-31T07:16:55;30.00;99.90
11079;DHT22;5592;49.234;7.268;2023-08-31T07:19:21;29.60;99.90
11079;DHT22;5592;49.234;7.268;2023-08-31T07:21:46;28.60;99.90
11079;DHT22;5592;49.234;7.268;2023-08-31T07:24:13;28.60;99.90
11079;DHT22;5592;49.234;7.268;2023-08-31T07:26:39;28.70;99.90
11079;DHT22;5592;49.234;7.268;2023-08-31T07:29:04;28.50;99.90
11079;DHT22;5592;49.234;7.268;2023-08-31T07:31:31;27.80;99.90
11079;DHT22;5592;49.234;7.268;2023-08-31T07:33:57;27.80;99.90
11079;DHT22;5592;49.234;7.268;2023-08-31T07:36:24;28.00;99.90
11079;DHT22;5592;49.234;7.268;2023-08-31T07:38:49;28.30;99.90
11079;DHT22;5592;49.234;7.268;2023-08-31T07:41:15;28.50;99.90
11079;DHT22;5592;49.234;7.268;2023-08-31T07:43:40;29.40;99.90
11079;DHT22;5592;49.234;7.268;2023-08-31T07:46:06;29.00;99.90
11079;DHT22;5592;49.234;7.268;2023-08-31T07:48:33;29.30;99.90
11079;DHT22;5592;49.234;7.268;2023-08-31T07:50:58;28.90;99.90
11079;DHT22;5592;49.234;7.268;2023-08-31T07:53:24;29.30;99.90
11079;DHT22;5592;49.234;7.268;2023-08-31T07:55:53;30.40;99.90
11079;DHT22;5592;49.234;7.268;2023-08-31T07:58:20;31.40;99.90
11079;DHT22;5592;49.234;7.268;2023-08-31T08:00:46;32.00;99.20
11079;DHT22;5592;49.234;7.268;2023-08-31T08:03:11;31.80;99.90
11079;DHT22;5592;49.234;7.268;2023-08-31T08:05:39;32.00;97.40
11079;DHT22;5592;49.234;7.268;2023-08-31T08:08:04;30.60;96.60
11079;DHT22;5592;49.234;7.268;2023-08-31T08:10:30;29.40;98.70
11079;DHT22;5592;49.234;7.268;2023-08-31T08:12:55;28.70;98.10
11079;DHT22;5592;49.234;7.268;2023-08-31T08:15:21;28.80;99.90
11079;DHT22;5592;49.234;7.268;2023-08-31T08:17:47;29.60;99.90
11079;DHT22;5592;49.234;7.268;2023-08-31T08:20:13;28.80;99.10
11079;DHT22;5592;49.234;7.268;2023-08-31T08:22:39;29.00;99.20
11079;DHT22;5592;49.234;7.268;2023-08-31T08:25:05;29.40;98.00
11079;DHT22;5592;49.234;7.268;2023-08-31T08:27:31;28.80;98.40
11079;DHT22;5592;49.234;7.268;2023-08-31T08:29:58;29.40;98.70
11079;DHT22;5592;49.234;7.268;2023-08-31T08:32:24;29.40;96.20
11079;DHT22;5592;49.234;7.268;2023-08-31T08:34:50;28.90;98.60
11079;DHT22;5592;49.234;7.268;2023-08-31T08:37:16;29.40;97.10
11079;DHT22;5592;49.234;7.268;2023-08-31T08:39:42;28.00;97.50
11079;DHT22;5592;49.234;7.268;2023-08-31T08:42:10;27.80;99.90
11079;DHT22;5592;49.234;7.268;2023-08-31T08:44:36;29.10;99.90
11079;DHT22;5592;49.234;7.268;2023-08-31T08:47:02;29.90;97.60
11079;DHT22;5592;49.234;7.268;2023-08-31T08:49:31;30.40;98.00
11079;DHT22;5592;49.234;7.268;2023-08-31T08:51:58;30.90;97.00
11079;DHT22;5592;49.234;7.268;2023-08-31T08:54:24;30.40;96.20
11079;DHT22;5592;49.234;7.268;2023-08-31T08:56:50;30.50;96.10
11079;DHT22;5592;49.234;7.268;2023-08-31T08:59:15;30.20;95.20
11079;DHT22;5592;49.234;7.268;2023-08-31T09:01:41;30.30;94.90
11079;DHT22;5592;49.234;7.268;2023-08-31T09:04:09;29.70;94.70
11079;DHT22;5592;49.234;7.268;2023-08-31T09:06:35;28.50;96.00
11079;DHT22;5592;49.234;7.268;2023-08-31T09:09:01;27.30;97.00
11079;DHT22;5592;49.234;7.268;2023-08-31T09:11:27;25.90;97.60
11079;DHT22;5592;49.234;7.268;2023-08-31T09:13:59;24.50;98.50
11079;DHT22;5592;49.234;7.268;2023-08-31T09:16:29;24.40;99.90
11079;DHT22;5592;49.234;7.268;2023-08-31T09:18:55;25.30;99.60
11079;DHT22;5592;49.234;7.268;2023-08-31T09:21:22;26.20;99.90
11079;DHT22;5592;49.234;7.268;2023-08-31T09:23:56;27.40;99.50
11079;DHT22;5592;49.234;7.268;2023-08-31T09:26:23;28.30;99.90
11079;DHT22;5592;49.234;7.268;2023-08-31T09:28:49;28.60;97.90
11079;DHT22;5592;49.234;7.268;2023-08-31T09:31:14;27.70;97.60
11079;DHT22;5592;49.234;7.268;2023-08-31T09:33:50;26.70;99.00
11079;DHT22;5592;49.234;7.268;2023-08-31T09:36:16;25.40;99.80
11079;DHT22;5592;49.234;7.268;2023-08-31T09:38:43;24.10;99.90
11079;DHT22;5592;49.234;7.268;2023-08-31T09:41:09;23.00;99.90
11079;DHT22;5592;49.234;7.268;2023-08-31T09:43:34;22.80;99.90
11079;DHT22;5592;49.234;7.268;2023-08-31T09:46:02;23.30;99.90
11079;DHT22;5592;49.234;7.268;2023-08-31T09:48:29;23.40;99.90
11079;DHT22;5592;49.234;7.268;2023-08-31T09:50:55;23.20;99.90
11079;DHT22;5592;49.234;7.268;2023-08-31T09:53:22;22.90;99.90
11079;DHT22;5592;49.234;7.268;2023-08-31T09:55:48;22.60;99.90
11079;DHT22;5592;49.234;7.268;2023-08-31T09:58:19;22.20;99.90
11079;DHT22;5592;49.234;7.268;2023-08-31T10:00:51;21.90;99.90
11079;DHT22;5592;49.234;7.268;2023-08-31T10:03:17;21.50;99.90
11079;DHT22;5592;49.234;7.268;2023-08-31T10:05:47;21.10;99.90
11079;DHT22;5592;49.234;7.268;2023-08-31T10:08:14;20.80;99.90
11079;DHT22;5592;49.234;7.268;2023-08-31T10:10:41;20.70;99.90
11079;DHT22;5592;49.234;7.268;2023-08-31T10:13:08;20.50;99.90
11079;DHT22;5592;49.234;7.268;2023-08-31T10:15:35;20.40;99.90
11079;DHT22;5592;49.234;7.268;2023-08-31T10:18:06;20.40;99.90
11079;DHT22;5592;49.234;7.268;2023-08-31T10:20:33;20.40;99.90
11079;DHT22;5592;49.234;7.268;2023-08-31T10:23:03;21.10;99.90
11079;DHT22;5592;49.234;7.268;2023-08-31T10:28:24;22.40;99.90
11079;DHT22;5592;49.234;7.268;2023-08-31T10:31:15;23.00;99.90
11079;DHT22;5592;49.234;7.268;2023-08-31T10:34:04;22.40;99.90
11079;DHT22;5592;49.234;7.268;2023-08-31T10:36:55;22.50;99.90
11079;DHT22;5592;49.234;7.268;2023-08-31T10:39:21;22.50;99.90
11079;DHT22;5592;49.234;7.268;2023-08-31T10:41:53;23.10;99.90
11079;DHT22;5592;49.234;7.268;2023-08-31T10:44:21;23.80;99.90
11079;DHT22;5592;49.234;7.268;2023-08-31T10:46:47;24.00;99.90
11079;DHT22;5592;49.234;7.268;2023-08-31T10:49:14;23.30;99.90
11079;DHT22;5592;49.234;7.268;2023-08-31T10:51:42;23.70;99.90
11079;DHT22;5592;49.234;7.268;2023-08-31T10:54:31;23.90;99.90
11079;DHT22;5592;49.234;7.268;2023-08-31T10:59:26;24.30;99.90
11079;DHT22;5592;49.234;7.268;2023-08-31T11:01:59;24.20;99.90
11079;DHT22;5592;49.234;7.268;2023-08-31T11:04:28;23.30;99.90
11079;DHT22;5592;49.234;7.268;2023-08-31T11:09:37;23.00;99.90
11079;DHT22;5592;49.234;7.268;2023-08-31T11:12:03;23.50;99.90
11079;DHT22;5592;49.234;7.268;2023-08-31T11:14:29;23.10;99.90
11079;DHT22;5592;49.234;7.268;2023-08-31T11:16:55;23.40;99.90
11079;DHT22;5592;49.234;7.268;2023-08-31T11:19:21;23.90;99.90
11079;DHT22;5592;49.234;7.268;2023-08-31T11:21:47;24.20;99.90
11079;DHT22;5592;49.234;7.268;2023-08-31T11:24:12;24.20;99.90
11079;DHT22;5592;49.234;7.268;2023-08-31T11:26:38;24.00;99.90
11079;DHT22;5592;49.234;7.268;2023-08-31T11:29:07;24.10;99.90
11079;DHT22;5592;49.234;7.268;2023-08-31T11:31:38;23.90;99.90
11079;DHT22;5592;49.234;7.268;2023-08-31T11:34:14;23.60;99.90
11079;DHT22;5592;49.234;7.268;2023-08-31T11:36:44;23.20;99.90
11079;DHT22;5592;49.234;7.268;2023-08-31T11:39:14;22.50;99.90
11079;DHT22;5592;49.234;7.268;2023-08-31T11:41:40;22.10;99.90
11079;DHT22;5592;49.234;7.268;2023-08-31T11:44:08;22.10;99.90
11079;DHT22;5592;49.234;7.268;2023-08-31T11:46:36;22.20;99.90
11079;DHT22;5592;49.234;7.268;2023-08-31T11:49:02;21.60;99.90
11079;DHT22;5592;49.234;7.268;2023-08-31T11:51:30;21.20;99.90
11079;DHT22;5592;49.234;7.268;2023-08-31T11:53:57;21.00;99.90
11079;DHT22;5592;49.234;7.268;2023-08-31T11:56:25;20.80;99.90
11079;DHT22;5592;49.234;7.268;2023-08-31T11:58:51;20.80;99.90
11079;DHT22;5592;49.234;7.268;2023-08-31T12:01:21;20.70;99.90
11079;DHT22;5592;49.234;7.268;2023-08-31T12:03:47;20.40;99.90
11079;DHT22;5592;49.234;7.268;2023-08-31T12:06:17;20.30;99.90
11079;DHT22;5592;49.234;7.268;2023-08-31T12:08:46;20.30;99.90
11079;DHT22;5592;49.234;7.268;2023-08-31T12:11:12;20.40;99.90
11079;DHT22;5592;49.234;7.268;2023-08-31T12:13:38;20.70;99.90
11079;DHT22;5592;49.234;7.268;2023-08-31T12:16:03;20.70;99.90
11079;DHT22;5592;49.234;7.268;2023-08-31T12:18:30;21.30;99.90
11079;DHT22;5592;49.234;7.268;2023-08-31T12:20:57;21.60;99.90
11079;DHT22;5592;49.234;7.268;2023-08-31T12:23:23;22.00;99.90
11079;DHT22;5592;49.234;7.268;2023-08-31T12:25:50;21.90;99.90
11079;DHT22;5592;49.234;7.268;2023-08-31T12:28:23;21.70;99.90
11079;DHT22;5592;49.234;7.268;2023-08-31T12:30:53;21.70;99.90
11079;DHT22;5592;49.234;7.268;2023-08-31T12:33:19;21.70;99.90
11079;DHT22;5592;49.234;7.268;2023-08-31T12:35:46;22.00;99.90
11079;DHT22;5592;49.234;7.268;2023-08-31T12:38:11;22.00;99.90
11079;DHT22;5592;49.234;7.268;2023-08-31T12:40:38;22.00;99.90
11079;DHT22;5592;49.234;7.268;2023-08-31T12:43:06;22.10;99.90
11079;DHT22;5592;49.234;7.268;2023-08-31T12:45:32;22.10;99.90
11079;DHT22;5592;49.234;7.268;2023-08-31T12:47:59;22.20;99.90
11079;DHT22;5592;49.234;7.268;2023-08-31T12:50:25;22.20;99.90
11079;DHT22;5592;49.234;7.268;2023-08-31T12:52:50;21.80;99.90
11079;DHT22;5592;49.234;7.268;2023-08-31T12:55:16;21.70;99.90
11079;DHT22;5592;49.234;7.268;2023-08-31T12:57:43;21.90;99.90
11079;DHT22;5592;49.234;7.268;2023-08-31T13:00:09;22.10;99.90
11079;DHT22;5592;49.234;7.268;2023-08-31T13:02:39;22.10;99.90
11079;DHT22;5592;49.234;7.268;2023-08-31T13:05:06;21.80;99.90
11079;DHT22;5592;49.234;7.268;2023-08-31T13:07:31;21.80;99.90
11079;DHT22;5592;49.234;7.268;2023-08-31T13:10:00;21.70;99.90
11079;DHT22;5592;49.234;7.268;2023-08-31T13:12:25;21.30;99.90
11079;DHT22;5592;49.234;7.268;2023-08-31T13:14:51;20.80;99.90
11079;DHT22;5592;49.234;7.268;2023-08-31T13:17:17;20.60;99.90
11079;DHT22;5592;49.234;7.268;2023-08-31T13:19:43;20.80;99.90
11079;DHT22;5592;49.234;7.268;2023-08-31T13:22:08;21.00;99.90
11079;DHT22;5592;49.234;7.268;2023-08-31T13:24:34;21.00;99.90
11079;DHT22;5592;49.234;7.268;2023-08-31T13:26:59;20.70;99.90
11079;DHT22;5592;49.234;7.268;2023-08-31T13:29:25;20.70;99.90
11079;DHT22;5592;49.234;7.268;2023-08-31T13:31:50;20.70;99.90
11079;DHT22;5592;49.234;7.268;2023-08-31T13:34:16;20.80;99.90
11079;DHT22;5592;49.234;7.268;2023-08-31T13:36:43;20.80;99.90
11079;DHT22;5592;49.234;7.268;2023-08-31T13:39:09;20.60;99.90
11079;DHT22;5592;49.234;7.268;2023-08-31T13:41:35;20.30;99.90
11079;DHT22;5592;49.234;7.268;2023-08-31T13:44:00;20.10;99.90
11079;DHT22;5592;49.234;7.268;2023-08-31T13:46:26;20.30;99.90
11079;DHT22;5592;49.234;7.268;2023-08-31T13:48:52;20.30;99.90
11079;DHT22;5592;49.234;7.268;2023-08-31T13:51:17;20.30;99.90
11079;DHT22;5592;49.234;7.268;2023-08-31T13:53:43;20.30;99.90
11079;DHT22;5592;49.234;7.268;2023-08-31T13:56:08;20.50;99.90
11079;DHT22;5592;49.234;7.268;2023-08-31T13:58:34;20.80;99.90
11079;DHT22;5592;49.234;7.268;2023-08-31T14:01:02;20.80;99.90
11079;DHT22;5592;49.234;7.268;2023-08-31T14:03:29;20.90;99.90
11079;DHT22;5592;49.234;7.268;2023-08-31T14:05:55;20.90;99.90
11079;DHT22;5592;49.234;7.268;2023-08-31T14:08:20;21.00;99.90
11079;DHT22;5592;49.234;7.268;2023-08-31T14:10:46;21.20;99.90
11079;DHT22;5592;49.234;7.268;2023-08-31T14:13:11;21.20;99.90
11079;DHT22;5592;49.234;7.268;2023-08-31T14:15:37;21.20;99.90
11079;DHT22;5592;49.234;7.268;2023-08-31T14:18:09;20.90;99.90
11079;DHT22;5592;49.234;7.268;2023-08-31T14:20:35;20.50;99.90
11079;DHT22;5592;49.234;7.268;2023-08-31T14:23:00;20.10;99.90
11079;DHT22;5592;49.234;7.268;2023-08-31T14:25:26;20.00;99.90
11079;DHT22;5592;49.234;7.268;2023-08-31T14:27:51;19.90;99.90
11079;DHT22;5592;49.234;7.268;2023-08-31T14:30:17;19.80;99.90
11079;DHT22;5592;49.234;7.268;2023-08-31T14:32:42;20.00;99.90
11079;DHT22;5592;49.234;7.268;2023-08-31T14:35:08;20.20;99.90
11079;DHT22;5592;49.234;7.268;2023-08-31T14:37:34;20.50;99.90
11079;DHT22;5592;49.234;7.268;2023-08-31T14:39:59;20.30;99.90
11079;DHT22;5592;49.234;7.268;2023-08-31T14:42:25;20.20;99.90
11079;DHT22;5592;49.234;7.268;2023-08-31T14:44:51;20.20;99.90
11079;DHT22;5592;49.234;7.268;2023-08-31T14:47:16;20.50;99.90
11079;DHT22;5592;49.234;7.268;2023-08-31T14:49:42;20.30;99.90
11079;DHT22;5592;49.234;7.268;2023-08-31T14:52:08;20.20;99.90
11079;DHT22;5592;49.234;7.268;2023-08-31T14:54:33;20.30;99.90
11079;DHT22;5592;49.234;7.268;2023-08-31T14:56:59;20.30;99.90
11079;DHT22;5592;49.234;7.268;2023-08-31T14:59:25;20.40;99.90
11079;DHT22;5592;49.234;7.268;2023-08-31T15:01:51;20.30;99.90
11079;DHT22;5592;49.234;7.268;2023-08-31T15:04:16;20.30;99.90
11079;DHT22;5592;49.234;7.268;2023-08-31T15:06:42;20.10;99.90
11079;DHT22;5592;49.234;7.268;2023-08-31T15:09:08;20.00;99.90
11079;DHT22;5592;49.234;7.268;2023-08-31T15:11:34;19.90;99.90
11079;DHT22;5592;49.234;7.268;2023-08-31T15:13:59;19.70;99.90
11079;DHT22;5592;49.234;7.268;2023-08-31T15:16:25;19.80;99.90
11079;DHT22;5592;49.234;7.268;2023-08-31T15:18:50;19.60;99.90
11079;DHT22;5592;49.234;7.268;2023-08-31T15:21:16;19.40;99.90
11079;DHT22;5592;49.234;7.268;2023-08-31T15:23:43;19.10;99.90
11079;DHT22;5592;49.234;7.268;2023-08-31T15:26:10;19.00;99.90
11079;DHT22;5592;49.234;7.268;2023-08-31T15:28:35;18.70;99.90
11079;DHT22;5592;49.234;7.268;2023-08-31T15:31:02;18.40;99.90
11079;DHT22;5592;49.234;7.268;2023-08-31T15:33:27;18.20;99.90
11079;DHT22;5592;49.234;7.268;2023-08-31T15:36:02;18.00;99.90
11079;DHT22;5592;49.234;7.268;2023-08-31T15:38:29;17.80;99.90
11079;DHT22;5592;49.234;7.268;2023-08-31T15:40:54;17.60;99.90
11079;DHT22;5592;49.234;7.268;2023-08-31T15:43:22;17.50;99.90
11079;DHT22;5592;49.234;7.268;2023-08-31T15:45:47;17.20;99.90
11079;DHT22;5592;49.234;7.268;2023-08-31T15:48:14;17.00;99.90
11079;DHT22;5592;49.234;7.268;2023-08-31T15:50:40;16.90;99.90
11079;DHT22;5592;49.234;7.268;2023-08-31T15:53:05;16.90;99.90
11079;DHT22;5592;49.234;7.268;2023-08-31T15:55:31;16.80;99.90
11079;DHT22;5592;49.234;7.268;2023-08-31T15:57:57;16.80;99.90
11079;DHT22;5592;49.234;7.268;2023-08-31T16:00:22;16.70;99.90